Matlock, WA

1:01 AM PDT on September 20, 2014 (GMT -0700)
KWAELMA7 | Change Station
CLOSE
Current Station
Personal Weather Station
Location: Elma, WA
Elevation: 203 ft
Nearby Weather Stations

Elev 203 ft 47.01 °N, 123.42 °W | Updated 1 minute ago

Overcast
Overcast
55.4 °F
Feels Like 55.4 °F
N
0.0
Wind Variable Wind from ENE

Today
High -- | Low -- °F
--% Chance of Precip.
Yesterday
High -- | Low -- °F
Precip. -- in
6:58 AM 7:15 PM
Waning Crescent, 14% visible
Pressure 30.08 in
Visibility 10.0 miles
Clouds Few 4700 ft
Dew Point 54 °F
Humidity 94%
Rainfall 0.00 in
Snow Depth Not available.
UV 0 out of 12
Pollen 1.60 out of 12
PM2.5 Good
Flu Activity Not available.
METAR KSHN 200753Z AUTO 00000KT 10SM FEW047 13/12 A3008 RMK AO2 SLP185 T01280122 402170128 TSNO

More Conditions Fewer Conditions

Pressure 30.08 in
Visibility 10.0 miles
Clouds Few 4700 ft
Dew Point 54 °F
Humidity 94%
Rainfall 0.00 in
Snow Depth Not available.
UV 0 out of 12
Pollen 1.60 out of 12
PM2.5 Good
Flu Activity Not available.
METAR KSHN 200753Z AUTO 00000KT 10SM FEW047 13/12 A3008 RMK AO2 SLP185 T01280122 402170128 TSNO

More Conditions Fewer Conditions

10-Day Weather Forecast

Almanac

Astronomy

Sep. 20, 2014 Rise Set
Actual Time 6:58 AM PDT 7:15 PM PDT
Civil Twilight 6:27 AM PDT 7:45 PM PDT
Nautical Twilight 5:51 AM PDT 8:21 PM PDT
Astronomical Twilight 5:14 AM PDT 8:59 PM PDT
Moon 3:31 AM PDT 5:30 PM PDT
Length of Visible Light 13h 18m
Length of Day
12h 17m
Tomorrow will be 3m 22s shorter.
Waning Crescent, 14% of the Moon is Illuminated
Today
Waning Crescent
Sep 24
New
Oct 1
First Quarter
Oct 8
Full
Oct 15
Last Quarter

Today's Extremes

State Highs State Lows

Community

WunderPhotos

Upload Photos

1,754,793 photos uploaded!

WunderBlogs® & News

Nearby

Air Quality

  Air Quality AQ Index Pollutant
Yesterday Good
PM2.5
Current Good
PM2.5

Snow Depth

Station Depth Elevation
Trough 0 in 5300 ft
Moses Mountain 1 in 5300 ft
Harts Pass 0 in 6500 ft
Sourdough Gulch 0 in 4000 ft
Touchet 0 in 5530 ft

Earthquake Activity

City Distance Mag. Time & Date
Seabeck, Washington 31 miles 4.0 3:06 AM PDT
2014-09-17
Minimum magnitude displayed is 2.5.

Coastal Water Temperatures

Place Temperature
Port Townsend, WA 53.1 °F
Seattle, WA 55.9 °F
Friday Harbor, WA 52.0 °F
Tacoma, WA 55.9 °F

Nearby Weather Stations